Terminal Aerodrome Forecast
Issued by NWS Twin Cities, MN

Home | Current Version | Previous Version | Graphics & Text | Print | Product List | Glossary On
Versions: 1 2 3 4 5 6 7 8 9 10 11 12 13 14 15 16 17
000
FTUS43 KMPX 021406 AAA
TAFSTC
TAF AMD
KSTC 021406Z 0214/0312 29006KT P6SM FEW060
      TEMPO 0215/0216 5SM -TSRA BKN045CB OVC100
     FM021700 32014G23KT P6SM SCT060
     FM030100 30005KT P6SM SKC=

USA.gov is the U.S. government's official web portal to all federal, state and local government web resources and services.